Time;durP1;ratioP1;P1;durP2;ratioP2;P2;SDS_P1;SDS_P2;PMS_P1;PMS_P2;Temp;Humidity;BMP_temperature;BMP_pressure;BME280_temperature;BME280_humidity;BME280_pressure;Samples;Min_cycle;Max_cycle;Signal;HPM_P1;HPM_P2
2021/12/28 00:01:10;;;;;;;;;6.50;5.00;;;;;10.72;100.00;98927.13;5050367;28;46851;-77
2021/12/28 00:03:37;;;;;;;;;12.75;7.25;;;;;10.73;100.00;98918.31;5049962;28;46695;-76
2021/12/28 00:06:05;;;;;;;;;25.33;14.67;;;;;10.67;100.00;98905.44;5051237;28;45392;-75
2021/12/28 00:08:30;;;;;;;;;11.50;7.50;;;;;10.74;100.00;98927.88;5052029;28;45855;-71
2021/12/28 00:10:56;;;;;;;;;9.25;4.75;;;;;10.78;100.00;98925.97;5052667;28;45467;-71
2021/12/28 00:13:24;;;;;;;;;12.75;6.75;;;;;10.77;100.00;98919.81;5054661;28;45517;-75
2021/12/28 00:16:01;;;;;;;;;20.00;16.00;;;;;10.75;100.00;98919.06;5055218;28;45457;-80
2021/12/28 00:18:28;;;;;;;;;10.25;4.00;;;;;10.80;100.00;98914.41;5045581;28;45552;-71
2021/12/28 00:20:57;;;;;;;;;26.50;16.25;;;;;10.82;100.00;98922.22;5041820;28;45763;-74
2021/12/28 00:23:27;;;;;;;;;8.75;5.00;;;;;10.82;100.00;98918.72;5054675;28;46969;-76
2021/12/28 00:25:54;;;;;;;;;11.00;8.00;;;;;10.86;100.00;98907.09;5051561;28;45651;-69
2021/12/28 00:28:20;;;;;;;;;13.50;6.00;;;;;10.85;100.00;98910.66;5051358;28;45772;-71
2021/12/28 00:30:47;;;;;;;;;9.00;6.00;;;;;10.84;100.00;98907.19;5039447;28;45497;-73
2021/12/28 00:33:14;;;;;;;;;12.50;7.00;;;;;10.85;100.00;98910.66;5037191;28;46214;-71
2021/12/28 00:35:41;;;;;;;;;10.50;5.00;;;;;10.88;100.00;98915.78;5037513;28;45459;-75
2021/12/28 00:38:09;;;;;;;;;12.00;5.00;;;;;10.73;100.00;98884.09;5046228;28;45482;-76
2021/12/28 00:40:35;;;;;;;;;5.75;4.50;;;;;10.85;100.00;98908.91;5042639;28;45506;-77
2021/12/28 00:43:02;;;;;;;;;5.25;5.25;;;;;10.83;100.00;98904.66;5048926;28;45725;-75
2021/12/28 00:45:28;;;;;;;;;12.50;5.50;;;;;10.81;100.00;98902.09;5044625;28;45885;-74
2021/12/28 00:47:54;;;;;;;;;13.25;5.00;;;;;10.78;100.00;98894.38;5051032;28;45992;-71
2021/12/28 00:50:20;;;;;;;;;16.75;6.00;;;;;10.84;100.00;98891.41;5055655;28;45483;-77
2021/12/28 00:52:46;;;;;;;;;15.25;5.75;;;;;10.86;100.00;98896.56;5054692;28;45839;-79
2021/12/28 00:55:14;;;;;;;;;5.00;4.00;;;;;10.61;100.00;98859.25;5056642;28;45482;-76
2021/12/28 00:57:39;;;;;;;;;6.25;6.25;;;;;10.74;100.00;98885.78;5041754;28;45549;-75
2021/12/28 01:00:09;;;;;;;;;9.75;7.25;;;;;10.84;100.00;98895.81;5054918;28;45525;-75
2021/12/28 01:02:35;;;;;;;;;8.25;5.50;;;;;10.89;100.00;98906.94;5049616;28;46916;-71
2021/12/28 01:05:01;;;;;;;;;5.75;2.00;;;;;10.78;100.00;98894.38;5050247;28;45555;-73
2021/12/28 01:07:26;;;;;;;;;6.00;6.00;;;;;10.92;100.00;98912.91;5057612;28;45795;-77
2021/12/28 01:09:52;;;;;;;;;7.50;4.50;;;;;10.88;100.00;98913.16;5066701;27;45526;-72
2021/12/28 01:12:18;;;;;;;;;8.75;6.25;;;;;10.95;100.00;98914.53;5065740;27;47234;-73
2021/12/28 01:14:43;;;;;;;;;4.75;4.75;;;;;10.91;100.00;98907.72;5062106;27;45727;-69
2021/12/28 01:17:08;;;;;;;;;9.00;5.75;;;;;10.73;100.00;98881.47;5062623;27;45877;-70
2021/12/28 01:19:34;;;;;;;;;3.75;3.75;;;;;10.83;100.00;98891.47;5042630;28;45624;-69
2021/12/28 01:22:01;;;;;;;;;7.75;4.00;;;;;10.86;100.00;98899.22;5059202;28;45473;-69
2021/12/28 01:24:28;;;;;;;;;9.25;4.50;;;;;10.91;100.00;98905.09;5057588;28;45498;-67
2021/12/28 01:26:54;;;;;;;;;5.00;4.00;;;;;10.84;100.00;98896.66;5065808;27;45414;-67
2021/12/28 01:29:19;;;;;;;;;4.75;3.50;;;;;10.89;100.00;98899.03;5072911;28;45396;-69
2021/12/28 01:31:45;;;;;;;;;7.50;3.75;;;;;10.91;100.00;98905.09;5066003;27;46053;-72
2021/12/28 01:34:10;;;;;;;;;7.00;5.00;;;;;10.87;100.00;98900.91;5059716;28;46387;-77
2021/12/28 01:36:36;;;;;;;;;4.50;3.00;;;;;10.87;100.00;98900.91;5074321;28;45422;-78
2021/12/28 01:39:04;;;;;;;;;10.00;5.75;;;;;10.92;100.00;98906.78;5057091;28;45391;-79
2021/12/28 01:41:30;;;;;;;;;3.75;3.75;;;;;10.87;100.00;98898.28;5055648;28;45697;-74
2021/12/28 01:44:00;;;;;;;;;5.75;3.75;;;;;10.85;100.00;98894.88;5069119;28;45823;-72
2021/12/28 01:46:25;;;;;;;;;4.00;4.00;;;;;10.90;100.00;98903.38;5074444;27;45526;-75
2021/12/28 01:48:51;;;;;;;;;4.00;4.00;;;;;10.90;100.00;98904.22;5075608;27;45431;-71
2021/12/28 01:51:21;;;;;;;;;6.25;3.75;;;;;10.89;100.00;98905.19;5059645;27;45519;-73
2021/12/28 01:53:49;;;;;;;;;5.75;2.75;;;;;10.98;100.00;98911.72;5075509;27;45755;-66
2021/12/28 01:56:18;;;;;;;;;6.00;3.25;;;;;10.99;100.00;98918.69;5064497;27;45825;-69
2021/12/28 01:58:44;;;;;;;;;4.00;3.00;;;;;10.96;100.00;98910.94;5058998;28;45434;-71
2021/12/28 02:01:11;;;;;;;;;5.75;3.75;;;;;11.00;100.00;98917.75;5067408;28;45819;-71
2021/12/28 02:03:38;;;;;;;;;4.50;3.00;;;;;10.99;100.00;98921.31;5058056;28;45486;-68
2021/12/28 02:06:04;;;;;;;;;3.00;2.00;;;;;11.11;100.00;98928.56;5058978;27;46748;-71
2021/12/28 02:08:29;;;;;;;;;6.00;2.00;;;;;11.02;100.00;98913.25;5066410;27;45678;-69
2021/12/28 02:10:56;;;;;;;;;4.50;3.00;;;;;11.02;100.00;98925.56;5059304;27;46285;-69
2021/12/28 02:13:23;;;;;;;;;9.00;4.75;;;;;11.00;100.00;98923.03;5065751;27;45414;-70
2021/12/28 02:15:49;;;;;;;;;2.75;2.00;;;;;10.96;100.00;98913.56;5061535;28;45604;-78
2021/12/28 02:18:18;;;;;;;;;1.75;1.75;;;;;11.04;100.00;98929.00;5059003;27;45421;-74
2021/12/28 02:20:44;;;;;;;;;3.00;1.00;;;;;11.02;100.00;98922.94;5054703;28;47060;-73
2021/12/28 02:23:10;;;;;;;;;2.75;2.75;;;;;11.00;100.00;98912.47;5054600;28;45441;-72
2021/12/28 02:25:37;;;;;;;;;3.00;2.00;;;;;11.00;100.00;98914.28;5054977;28;45828;-72
2021/12/28 02:28:05;;;;;;;;;1.00;1.00;;;;;10.91;100.00;98913.00;5054903;28;45456;-75
2021/12/28 02:30:31;;;;;;;;;3.00;1.00;;;;;10.95;100.00;98920.63;5054352;28;45423;-79
2021/12/28 02:32:56;;;;;;;;;2.50;1.25;;;;;10.92;100.00;98933.97;5054699;28;45578;-82
2021/12/28 02:35:26;;;;;;;;;2.00;2.00;;;;;10.88;100.00;98914.00;5054953;28;45609;-80
2021/12/28 02:37:52;;;;;;;;;2.25;1.00;;;;;10.86;100.00;98905.31;5057135;28;45266;-81
2021/12/28 02:40:21;;;;;;;;;1.00;1.00;;;;;10.87;100.00;98914.94;5056662;28;45336;-79
2021/12/28 02:42:47;;;;;;;;;3.25;2.00;;;;;10.89;100.00;98914.84;5057924;28;45339;-78
2021/12/28 02:45:18;;;;;;;;;5.75;1.75;;;;;10.95;100.00;98927.69;5058132;28;45422;-78
2021/12/28 02:47:45;;;;;;;;;5.75;2.00;;;;;10.90;100.00;98921.81;5056613;28;45502;-78
2021/12/28 02:50:20;;;;;;;;;3.00;1.50;;;;;10.92;100.00;98930.47;5057897;28;46596;-78
2021/12/28 02:52:45;;;;;;;;;3.00;1.00;;;;;10.86;100.00;98929.00;5057949;28;45486;-78
2021/12/28 02:55:14;;;;;;;;;2.50;2.00;;;;;10.90;100.00;98933.19;5061787;28;45462;-78
2021/12/28 02:57:49;;;;;;;;;4.00;2.50;;;;;10.91;100.00;98931.44;5038134;28;45441;-78
2021/12/28 03:00:30;;;;;;;;;4.50;3.00;;;;;10.65;100.00;98894.16;5045419;28;46559;-77
2021/12/28 03:02:55;;;;;;;;;5.00;2.00;;;;;10.93;100.00;98921.66;5056864;28;45355;-78
2021/12/28 03:05:24;;;;;;;;;3.75;1.50;;;;;10.78;100.00;98895.22;5058221;28;45299;-77
2021/12/28 03:07:50;;;;;;;;;3.00;1.50;;;;;10.86;100.00;98912.38;5057765;28;45326;-77
2021/12/28 03:10:15;;;;;;;;;1.25;1.25;;;;;10.88;100.00;98918.44;5061333;28;46153;-77
2021/12/28 03:12:41;;;;;;;;;5.75;1.75;;;;;10.90;100.00;98914.75;5057719;28;45297;-76
2021/12/28 03:15:06;;;;;;;;;2.25;1.50;;;;;10.84;100.00;98909.81;5057878;28;45290;-76
2021/12/28 03:17:32;;;;;;;;;4.75;4.75;;;;;10.77;100.00;98895.28;5061703;28;45540;-79
2021/12/28 03:19:57;;;;;;;;;4.00;3.00;;;;;10.87;100.00;98912.28;5057383;28;45412;-78
2021/12/28 03:22:22;;;;;;;;;2.25;2.00;;;;;10.80;100.00;98900.38;5057610;28;45332;-78
2021/12/28 03:24:48;;;;;;;;;3.00;2.00;;;;;10.85;100.00;98911.53;5057658;28;45459;-78
2021/12/28 03:27:13;;;;;;;;;4.00;0.75;;;;;10.84;100.00;98909.00;5057864;28;45230;-78
2021/12/28 03:29:38;;;;;;;;;2.50;1.50;;;;;10.89;100.00;98912.22;5057616;28;45435;-78
2021/12/28 03:32:04;;;;;;;;;2.75;0.75;;;;;10.88;100.00;98907.91;5057352;28;45358;-78
2021/12/28 03:34:30;;;;;;;;;2.50;1.75;;;;;10.90;100.00;98916.56;5057487;28;45316;-78
2021/12/28 03:36:55;;;;;;;;;1.00;1.00;;;;;10.87;100.00;98896.50;5057763;28;45394;-78
2021/12/28 03:39:20;;;;;;;;;2.00;2.00;;;;;10.86;100.00;98897.41;5057427;28;45514;-78
2021/12/28 03:41:46;;;;;;;;;2.25;2.00;;;;;10.93;100.00;98916.38;5057562;28;45791;-78
2021/12/28 03:44:12;;;;;;;;;2.75;2.00;;;;;10.92;100.00;98914.66;5057390;28;45523;-79
2021/12/28 03:46:37;;;;;;;;;1.50;1.00;;;;;10.91;100.00;98905.09;5057602;28;45403;-78
2021/12/28 03:49:03;;;;;;;;;2.00;2.00;;;;;10.95;100.00;98901.38;5057382;28;45497;-79
2021/12/28 03:51:29;;;;;;;;;3.00;2.25;;;;;10.94;100.00;98899.66;5077012;28;45343;-79
2021/12/28 03:53:55;;;;;;;;;5.75;3.00;;;;;10.90;100.00;98900.75;5077499;27;45323;-79
2021/12/28 03:56:20;;;;;;;;;4.25;2.00;;;;;10.90;100.00;98898.13;5069503;28;45154;-79
2021/12/28 03:58:47;;;;;;;;;6.25;3.25;;;;;10.89;100.00;98889.38;5057170;28;46652;-80
2021/12/28 04:01:19;;;;;;;;;2.00;2.00;;;;;10.85;100.00;98889.59;5057434;28;45305;-80
2021/12/28 04:03:44;;;;;;;;;3.50;3.50;;;;;10.89;100.00;98894.66;5074428;28;45191;-80
2021/12/28 04:06:10;;;;;;;;;7.25;4.25;;;;;10.93;100.00;98904.06;5063554;27;45447;-80
2021/12/28 04:08:39;;;;;;;;;6.50;4.75;;;;;10.83;100.00;98884.41;5057093;28;46594;-80
2021/12/28 04:11:15;;;;;;;;;5.50;3.50;;;;;10.89;100.00;98891.16;5058517;28;45299;-79
2021/12/28 04:13:45;;;;;;;;;5.00;3.00;;;;;10.92;100.00;98890.97;5059563;28;45537;-80
2021/12/28 04:16:11;;;;;;;;;3.00;3.00;;;;;10.91;100.00;98892.78;5061078;28;45431;-80
2021/12/28 04:18:36;;;;;;;;;4.00;3.00;;;;;10.92;100.00;98890.97;5060779;28;45781;-79
2021/12/28 04:21:02;;;;;;;;;5.00;4.00;;;;;10.95;100.00;98889.03;5074495;28;45357;-80
2021/12/28 04:23:27;;;;;;;;;4.00;2.00;;;;;10.92;100.00;98880.44;5069698;27;45201;-79
2021/12/28 04:25:54;;;;;;;;;7.25;4.00;;;;;10.97;100.00;98881.06;5060810;28;45444;-80
2021/12/28 04:28:19;;;;;;;;;3.00;3.00;;;;;11.00;100.00;98882.69;5060593;28;46563;-80
2021/12/28 04:30:44;;;;;;;;;5.00;4.25;;;;;11.00;100.00;98882.69;5060429;28;45446;-81
2021/12/28 04:33:10;;;;;;;;;6.00;3.75;;;;;10.98;100.00;98869.59;5060736;28;45436;-81
2021/12/28 04:35:35;;;;;;;;;3.25;3.00;;;;;10.97;100.00;98875.78;5069858;27;45518;-81
2021/12/28 04:38:01;;;;;;;;;3.75;3.75;;;;;10.94;100.00;98878.59;5062809;27;46301;-81
2021/12/28 04:40:26;;;;;;;;;5.50;4.00;;;;;10.98;100.00;98885.41;5060420;28;45347;-83
2021/12/28 04:42:51;;;;;;;;;5.00;3.00;;;;;10.99;100.00;98892.34;5060238;28;45803;-82
2021/12/28 04:45:17;;;;;;;;;3.00;3.00;;;;;11.01;100.00;98898.41;5061435;28;45472;-84
2021/12/28 04:47:44;;;;;;;;;6.00;4.00;;;;;11.02;100.00;98893.97;5070705;28;46763;-80
2021/12/28 04:50:11;;;;;;;;;3.00;3.00;;;;;11.03;100.00;98893.03;5070060;27;45399;-81
2021/12/28 04:52:38;;;;;;;;;2.00;2.00;;;;;10.96;100.00;98889.88;5060398;28;45336;-84
2021/12/28 04:55:10;;;;;;;;;2.00;2.00;;;;;10.79;100.00;98857.44;5065510;28;45495;-81
2021/12/28 04:57:35;;;;;;;;;6.00;4.75;;;;;11.02;100.00;98891.34;5065572;27;46517;-81
2021/12/28 05:00:01;;;;;;;;;2.75;2.75;;;;;11.06;100.00;98898.13;5060109;28;45443;-82
2021/12/28 05:02:27;;;;;;;;;2.50;2.00;;;;;11.06;100.00;98892.88;5060091;28;45518;-80
2021/12/28 05:04:52;;;;;;;;;1.00;0.75;;;;;11.04;100.00;98892.94;5060440;28;45321;-80
2021/12/28 05:07:18;;;;;;;;;2.00;1.00;;;;;11.07;100.00;98891.94;5059795;28;45332;-81
2021/12/28 05:09:43;;;;;;;;;3.00;1.00;;;;;11.07;100.00;98895.41;5060968;28;45299;-80
2021/12/28 05:12:09;;;;;;;;;2.50;1.50;;;;;11.02;100.00;98889.53;5070915;27;45364;-81
2021/12/28 05:14:39;;;;;;;;;4.00;1.00;;;;;11.01;100.00;98887.84;5060742;28;45461;-81
2021/12/28 05:17:04;;;;;;;;;2.25;2.25;;;;;11.00;100.00;98883.50;5059582;28;47119;-83
2021/12/28 05:19:30;;;;;;;;;3.00;1.75;;;;;11.05;100.00;98894.66;5059649;28;45214;-79
2021/12/28 05:21:55;;;;;;;;;2.75;2.00;;;;;11.10;100.00;98900.50;5060896;28;45489;-79
2021/12/28 05:24:20;;;;;;;;;2.25;2.25;;;;;11.05;100.00;98891.16;5060367;28;45381;-80
2021/12/28 05:26:46;;;;;;;;;2.00;2.00;;;;;11.09;100.00;98893.53;5065104;27;46615;-79
2021/12/28 05:29:11;;;;;;;;;1.00;1.00;;;;;10.75;100.00;98837.47;5079622;27;45458;-80
2021/12/28 05:31:37;;;;;;;;;2.00;2.00;;;;;11.05;100.00;98889.41;5079656;27;45254;-80
2021/12/28 05:34:03;;;;;;;;;2.00;2.00;;;;;11.09;100.00;98890.06;5079244;27;45333;-80
2021/12/28 05:36:28;;;;;;;;;6.25;2.00;;;;;11.13;100.00;98896.88;5078021;27;46663;-80
2021/12/28 05:38:54;;;;;;;;;2.00;2.00;;;;;11.09;100.00;98893.53;5077925;27;45459;-80
2021/12/28 05:41:19;;;;;;;;;4.75;3.00;;;;;11.01;100.00;98874.69;5079445;27;45343;-80
2021/12/28 05:43:45;;;;;;;;;4.00;2.25;;;;;11.10;100.00;98883.88;5079408;27;45835;-80
2021/12/28 05:46:10;;;;;;;;;2.00;2.00;;;;;11.00;100.00;98869.50;5062185;27;47006;-81
2021/12/28 05:48:36;;;;;;;;;3.75;2.00;;;;;10.92;100.00;98862.00;5059141;28;45393;-82
2021/12/28 05:51:01;;;;;;;;;2.50;1.75;;;;;11.10;100.00;98883.88;5074829;28;45494;-81
2021/12/28 05:53:27;;;;;;;;;3.00;3.00;;;;;11.10;100.00;98876.81;5078761;27;47036;-81
2021/12/28 05:55:52;;;;;;;;;1.00;1.00;;;;;11.08;100.00;98886.59;5077448;27;45397;-81
2021/12/28 05:58:17;;;;;;;;;1.00;1.00;;;;;11.06;100.00;98879.69;5069771;27;45412;-79
2021/12/28 06:00:43;;;;;;;;;3.00;1.50;;;;;11.05;100.00;98876.22;5067634;28;45801;-84
2021/12/28 06:03:09;;;;;;;;;1.00;1.00;;;;;11.00;100.00;98859.81;5079228;27;45321;-84
2021/12/28 06:05:34;;;;;;;;;2.00;2.00;;;;;11.00;100.00;98861.63;5078580;27;46655;-83
2021/12/28 06:08:00;;;;;;;;;0.75;0.75;;;;;11.01;100.00;98858.88;5079324;27;45271;-84
2021/12/28 06:10:25;;;;;;;;;1.50;0.25;;;;;11.06;100.00;98862.09;5061707;27;45349;-81
2021/12/28 06:12:51;;;;;;;;;1.00;1.00;;;;;11.06;100.00;98853.38;5077413;27;45402;-82
2021/12/28 06:15:16;;;;;;;;;21.33;21.33;;;;;11.06;100.00;98864.75;5078303;27;46546;-82
2021/12/28 06:17:42;;;;;;;;;3.00;3.00;;;;;11.05;100.00;98864.81;5076625;27;45289;-81
2021/12/28 06:20:08;;;;;;;;;3.25;3.25;;;;;11.06;100.00;98875.28;5058696;28;45231;-80
2021/12/28 06:22:34;;;;;;;;;1.50;1.50;;;;;11.04;100.00;98876.31;5058704;28;45412;-78
2021/12/28 06:24:59;;;;;;;;;3.00;3.00;;;;;10.99;100.00;98873.91;5072733;28;46708;-81
2021/12/28 06:27:25;;;;;;;;;0.50;0.00;;;;;10.79;100.00;98852.16;5069941;27;45463;-79
2021/12/28 06:29:50;;;;;;;;;5.50;2.75;;;;;10.95;100.00;98878.50;5058819;28;45377;-80
2021/12/28 06:32:16;;;;;;;;;2.25;2.25;;;;;10.89;100.00;98870.06;5059925;28;45368;-80
2021/12/28 06:34:41;;;;;;;;;2.00;2.00;;;;;10.97;100.00;98886.31;5076841;27;45660;-79
2021/12/28 06:37:07;;;;;;;;;4.25;3.75;;;;;10.90;100.00;98871.78;5068819;27;45500;-79
2021/12/28 06:39:33;;;;;;;;;2.75;2.75;;;;;10.85;100.00;98866.78;5059624;28;45561;-78
2021/12/28 06:41:58;;;;;;;;;35.33;31.67;;;;;10.90;100.00;98893.69;5058878;28;45372;-79
2021/12/28 06:44:24;;;;;;;;;4.00;3.50;;;;;10.88;100.00;98889.47;5058129;27;47262;-81
2021/12/28 06:46:49;;;;;;;;;0.75;0.75;;;;;10.82;100.00;98880.13;5058046;28;45367;-78
2021/12/28 06:49:15;;;;;;;;;1.00;1.00;;;;;10.90;100.00;98898.13;5058217;28;45234;-79
2021/12/28 06:51:41;;;;;;;;;1.00;1.00;;;;;10.89;100.00;98896.41;5058448;28;45321;-83
2021/12/28 06:54:06;;;;;;;;;1.00;1.00;;;;;10.83;100.00;98873.91;5059204;28;47184;-82
2021/12/28 06:56:32;;;;;;;;;0.00;0.00;;;;;10.98;100.00;98886.25;5066595;28;45442;-82
2021/12/28 06:58:58;;;;;;;;;0.00;0.00;;;;;11.01;100.00;98900.16;5069286;27;45383;-83
2021/12/28 07:01:23;;;;;;;;;0.00;0.00;;;;;10.95;100.00;98888.19;5058468;28;45183;-85
2021/12/28 07:03:50;;;;;;;;;0.00;0.00;;;;;11.06;100.00;98898.97;5057878;28;46070;-80
2021/12/28 07:06:16;;;;;;;;;0.00;0.00;;;;;10.99;100.00;98892.34;5070784;28;45423;-82
2021/12/28 07:08:42;;;;;;;;;0.00;0.00;;;;;11.06;100.00;98908.66;5078139;27;45512;-81
2021/12/28 07:11:08;;;;;;;;;0.00;0.00;;;;;10.96;100.00;98887.25;5072765;27;45404;-80
2021/12/28 07:13:34;;;;;;;;;0.00;0.00;;;;;10.96;100.00;98888.13;5057658;28;46545;-83
2021/12/28 07:15:59;;;;;;;;;0.00;0.00;;;;;11.00;100.00;98896.69;5061401;28;45446;-86
2021/12/28 07:18:24;;;;;;;;;0.75;0.25;;;;;10.91;100.00;98884.03;5078076;27;45232;-81
2021/12/28 07:20:50;;;;;;;;;2.00;0.00;;;;;10.86;100.00;98888.69;5071452;27;45453;-85
2021/12/28 07:23:15;;;;;;;;;0.00;0.00;;;;;10.96;100.00;98896.00;5067487;28;46723;-80
2021/12/28 07:25:41;;;;;;;;;0.00;0.00;;;;;10.91;100.00;98876.97;5073269;27;45434;-80
2021/12/28 07:28:07;;;;;;;;;0.25;0.25;;;;;10.88;100.00;98885.03;5057683;28;45699;-83
2021/12/28 07:30:32;;;;;;;;;0.00;0.00;;;;;10.93;100.00;98883.00;5068211;28;45221;-81
2021/12/28 07:32:58;;;;;;;;;1.00;0.00;;;;;10.98;100.00;98886.25;5077608;27;45452;-82
2021/12/28 07:35:23;;;;;;;;;0.25;0.25;;;;;10.98;100.00;98886.25;5077596;27;45153;-85
2021/12/28 07:37:49;;;;;;;;;0.75;0.00;;;;;10.93;100.00;98887.41;5078333;27;45337;-81
2021/12/28 07:40:15;;;;;;;;;2.50;1.00;;;;;11.02;100.00;98886.91;5076180;28;45269;-80
2021/12/28 07:42:40;;;;;;;;;1.00;1.00;;;;;11.04;100.00;98894.75;5077506;28;45692;-78
2021/12/28 07:45:09;;;;;;;;;0.75;0.75;;;;;11.02;100.00;98883.44;5077023;27;45359;-80
2021/12/28 07:47:35;;;;;;;;;1.00;1.00;;;;;11.02;100.00;98892.16;5075382;28;45350;-83
2021/12/28 07:50:01;;;;;;;;;1.00;0.00;;;;;11.03;100.00;98904.41;5077791;28;45787;-81
2021/12/28 07:52:26;;;;;;;;;4.00;1.00;;;;;11.06;100.00;98895.50;5077177;27;46318;-78
2021/12/28 07:54:51;;;;;;;;;0.50;0.50;;;;;11.11;100.00;98903.97;5076020;28;45369;-78
2021/12/28 07:57:17;;;;;;;;;2.25;1.00;;;;;11.15;100.00;98911.66;5061042;27;45242;-78
2021/12/28 07:59:42;;;;;;;;;0.00;0.00;;;;;11.11;100.00;98896.09;5065396;28;45589;-76
2021/12/28 08:02:08;;;;;;;;;0.50;0.50;;;;;11.14;100.00;98907.31;5060973;27;45320;-78
2021/12/28 08:04:33;;;;;;;;;2.00;2.00;;;;;11.10;100.00;98895.25;5063918;28;45325;-79
2021/12/28 08:06:58;;;;;;;;;0.25;0.25;;;;;11.18;100.00;98904.50;5077495;27;45625;-76
2021/12/28 08:09:24;;;;;;;;;4.00;1.00;;;;;11.18;100.00;98899.25;5077557;27;45360;-81
2021/12/28 08:11:50;;;;;;;;;0.00;0.00;;;;;11.21;100.00;98897.31;5074111;27;46464;-79
2021/12/28 08:14:15;;;;;;;;;1.00;1.00;;;;;11.28;100.00;98905.69;5076886;27;45476;-79
2021/12/28 08:16:41;;;;;;;;;1.00;0.00;;;;;11.30;100.00;98912.59;5077080;27;45555;-80
2021/12/28 08:19:08;;;;;;;;;2.00;0.00;;;;;11.28;100.00;98903.94;5058815;27;45328;-80
2021/12/28 08:21:34;;;;;;;;;1.25;0.75;;;;;11.30;99.68;98902.06;5057005;28;46531;-80
2021/12/28 08:24:00;;;;;;;;;5.00;2.00;;;;;11.35;99.54;98912.34;5056973;28;45310;-79
2021/12/28 08:26:26;;;;;;;;;0.00;0.00;;;;;11.41;99.73;98917.25;5072178;28;45474;-77
2021/12/28 08:28:51;;;;;;;;;3.50;0.75;;;;;11.32;100.00;98909.88;5077652;27;45171;-79
2021/12/28 08:31:16;;;;;;;;;1.75;1.00;;;;;11.30;100.00;98903.84;5060247;27;46358;-77
2021/12/28 08:33:42;;;;;;;;;3.00;1.00;;;;;11.35;100.00;98924.66;5076247;27;45382;-77
2021/12/28 08:36:07;;;;;;;;;3.75;1.00;;;;;11.32;100.00;98913.34;5076790;27;45364;-78
2021/12/28 08:38:32;;;;;;;;;1.50;0.00;;;;;11.31;100.00;98918.69;5075409;27;45405;-77
2021/12/28 08:40:59;;;;;;;;;2.00;1.50;;;;;11.24;100.00;98912.94;5068281;27;45207;-80
2021/12/28 08:43:26;;;;;;;;;2.25;1.00;;;;;11.25;100.00;98906.72;5056952;28;45344;-83
2021/12/28 08:45:52;;;;;;;;;1.75;1.00;;;;;11.21;100.00;98923.66;5057648;28;45478;-83
2021/12/28 08:48:17;;;;;;;;;0.50;0.50;;;;;11.17;100.00;98910.72;5056559;28;45410;-84
2021/12/28 08:50:43;;;;;;;;;0.00;0.00;;;;;11.19;100.00;98924.66;5056595;28;46145;-83
2021/12/28 08:53:10;;;;;;;;;1.75;1.25;;;;;11.11;100.00;98919.78;5056491;28;45499;-81
2021/12/28 08:55:36;;;;;;;;;0.50;0.50;;;;;11.12;100.00;98937.31;5057786;28;45251;-79
2021/12/28 08:58:02;;;;;;;;;3.00;1.00;;;;;11.07;100.00;98931.44;5058154;28;46185;-77
2021/12/28 09:00:32;;;;;;;;;1.50;0.75;;;;;11.05;100.00;98938.56;5062961;28;46412;-81
2021/12/28 09:02:58;;;;;;;;;1.00;1.00;;;;;11.05;100.00;98943.84;5078305;27;45304;-82
2021/12/28 09:05:25;;;;;;;;;1.00;1.00;;;;;10.97;100.00;98945.09;5063463;27;45636;-81
2021/12/28 09:07:51;;;;;;;;;4.50;0.00;;;;;11.11;100.00;98954.91;5074885;28;45400;-81
2021/12/28 09:10:17;;;;;;;;;1.00;1.00;;;;;11.13;100.00;98965.34;5075497;27;46234;-79
2021/12/28 09:12:42;;;;;;;;;2.25;2.00;;;;;11.02;100.00;98936.94;5062981;28;45342;-82
2021/12/28 09:15:10;;;;;;;;;2.50;2.00;;;;;11.03;100.00;98949.19;5067816;28;45412;-81
2021/12/28 09:17:37;;;;;;;;;4.00;2.00;;;;;10.95;100.00;98941.72;5059883;28;45462;-79
2021/12/28 09:20:15;;;;;;;;;5.25;3.00;;;;;10.92;100.00;98935.75;5072864;28;46274;-79
2021/12/28 09:22:42;;;;;;;;;5.75;5.75;;;;;11.01;100.00;98953.69;5079591;27;45225;-83
2021/12/28 09:25:08;;;;;;;;;2.25;1.00;;;;;10.89;99.87;98942.03;5071354;27;45314;-82
2021/12/28 09:27:34;;;;;;;;;5.25;3.25;;;;;10.77;98.96;98925.09;5059982;28;45371;-83
2021/12/28 09:29:59;;;;;;;;;9.00;3.00;;;;;10.77;98.96;98917.19;5059296;28;46199;-78
2021/12/28 09:32:24;;;;;;;;;9.25;2.50;;;;;11.00;98.69;98959.88;5059331;28;45330;-79
2021/12/28 09:34:52;;;;;;;;;9.00;6.25;;;;;11.02;96.60;98949.28;5066038;28;45538;-79
2021/12/28 09:37:19;;;;;;;;;10.00;4.75;;;;;11.06;94.68;98959.56;5069380;27;45345;-79
2021/12/28 09:39:45;;;;;;;;;8.25;4.00;;;;;11.21;93.62;98978.09;5073967;28;47328;-79
2021/12/28 09:42:11;;;;;;;;;11.00;4.50;;;;;11.24;92.95;98978.81;5077999;27;45415;-79
2021/12/28 09:44:38;;;;;;;;;10.75;7.00;;;;;11.31;90.92;98979.31;5079337;27;45204;-82
2021/12/28 09:47:04;;;;;;;;;8.75;4.00;;;;;11.24;91.54;98976.16;5078794;27;45198;-80
2021/12/28 09:49:31;;;;;;;;;10.50;4.00;;;;;11.38;89.01;98993.84;5073731;27;45484;-81
2021/12/28 09:51:59;;;;;;;;;9.00;8.25;;;;;11.29;88.46;98978.53;5067871;28;45311;-78
2021/12/28 09:54:26;;;;;;;;;10.00;5.00;;;;;11.41;86.61;99024.47;5079250;27;45311;-81
2021/12/28 09:56:51;;;;;;;;;7.75;4.00;;;;;11.33;86.89;99001.16;5077717;28;45228;-82
2021/12/28 09:59:17;;;;;;;;;8.50;4.25;;;;;11.38;86.27;99014.94;5071955;27;46245;-78
2021/12/28 10:01:42;;;;;;;;;5.00;3.00;;;;;11.13;86.90;98984.63;5064050;28;45301;-78
2021/12/28 10:04:08;;;;;;;;;5.50;5.50;;;;;11.38;87.00;99022.84;5068929;27;45479;-81
2021/12/28 10:06:33;;;;;;;;;8.00;5.50;;;;;11.41;86.69;99017.38;5067943;28;45457;-76
2021/12/28 10:09:25;;;;;;;;;9.00;7.00;;;;;11.59;84.73;99030.50;5078760;28;45486;-80
2021/12/28 10:11:53;;;;;;;;;7.75;6.00;;;;;11.64;82.98;99023.19;5074836;27;45282;-80
2021/12/28 10:14:25;;;;;;;;;12.00;7.25;;;;;11.58;83.17;99021.75;5075918;28;45394;-81
2021/12/28 10:16:52;;;;;;;;;8.50;7.25;;;;;11.67;83.66;99034.41;5078207;28;45209;-77
2021/12/28 10:19:30;;;;;;;;;10.25;5.75;;;;;11.74;83.44;99036.75;5078811;27;46151;-76
2021/12/28 10:21:55;;;;;;;;;9.00;4.50;;;;;11.70;82.33;99008.84;5072894;28;45443;-79
2021/12/28 10:24:36;;;;;;;;;14.75;7.75;;;;;11.81;81.70;99020.47;5059049;28;45348;-79
2021/12/28 10:27:12;;;;;;;;;8.25;4.75;;;;;11.76;80.81;99022.53;5058902;28;45443;-79
2021/12/28 10:29:38;;;;;;;;;11.50;5.00;;;;;11.78;80.67;99015.38;5061784;28;46107;-78
2021/12/28 10:32:33;;;;;;;;;19.50;9.00;;;;;11.86;81.00;99014.94;5065422;28;45833;-81
2021/12/28 10:35:11;;;;;;;;;14.75;8.25;;;;;11.94;80.88;99007.50;5003534;28;46000;-81
2021/12/28 10:37:40;;;;;;;;;14.25;9.00;;;;;12.02;80.10;99021.09;5001409;28;45484;-81
2021/12/28 10:40:09;;;;;;;;;16.75;6.75;;;;;12.09;77.24;99026.03;5007979;28;46457;-79
2021/12/28 10:43:00;;;;;;;;;10.50;4.75;;;;;12.01;78.16;99022.03;5005293;28;45442;-81
2021/12/28 10:45:31;;;;;;;;;12.00;6.25;;;;;12.00;78.58;99036.16;4991405;28;45478;-80
2021/12/28 10:48:02;;;;;;;;;11.50;5.25;;;;;12.02;77.09;99036.06;4999277;28;45412;-79
2021/12/28 10:50:34;;;;;;;;;8.00;4.75;;;;;11.97;77.31;99031.06;5005227;28;45560;-79
2021/12/28 10:53:08;;;;;;;;;9.50;5.75;;;;;11.87;77.09;99034.28;4991049;28;45449;-78
2021/12/28 10:55:37;;;;;;;;;10.00;3.50;;;;;11.94;76.42;99035.66;4996049;28;45436;-81
2021/12/28 10:58:05;;;;;;;;;5.25;4.75;;;;;11.99;76.66;99037.06;4996204;28;45408;-78
2021/12/28 11:00:42;;;;;;;;;4.50;3.00;;;;;12.02;75.93;99042.22;4995730;28;47488;-80
2021/12/28 11:03:17;;;;;;;;;12.00;5.75;;;;;12.06;75.38;99042.88;4995978;28;45430;-78
2021/12/28 11:05:50;;;;;;;;;15.00;6.00;;;;;12.02;75.38;99025.50;4996241;28;45389;-78
2021/12/28 11:08:17;;;;;;;;;6.00;5.75;;;;;11.98;74.61;99035.41;4996289;28;45378;-77
2021/12/28 11:10:46;;;;;;;;;11.25;6.00;;;;;11.89;75.99;99037.66;5004953;28;46568;-79
2021/12/28 11:13:13;;;;;;;;;11.50;4.75;;;;;11.84;76.88;99045.84;5057657;28;45265;-79
2021/12/28 11:15:46;;;;;;;;;10.75;5.25;;;;;11.72;78.03;99035.94;5058098;28;45168;-77
2021/12/28 11:18:33;;;;;;;;;16.25;4.75;;;;;11.61;79.72;99045.31;5058270;28;45254;-81
2021/12/28 11:21:09;;;;;;;;;13.50;7.75;;;;;11.57;80.68;99029.75;5057415;28;46583;-79
2021/12/28 11:23:34;;;;;;;;;11.50;7.50;;;;;11.69;80.14;99039.63;5056513;28;45382;-70